Terminal Aerodrome Forecast
Issued by NWS

Home | Current Version | Previous Version | Text Only | Print | Product List | Glossary Off
Versions: 1 2 3 4 5 6 7 8 9 10 11 12 13 14 15 16 17 18 19 20 21 22 23 24 25 26 27 28 29 30 31 32 33 34 35 36 37 38 39 40 41 42 43 44 45 46 47 48 49 50

000
FTUS43 KGRB 200500
TAFRHI
TAF
KRHI 200520Z 2006/2106 29004KT 6SM BR BKN012 BKN040
      TEMPO 2006/2008 1SM BR BKN005
     FM200800 33003KT 1/4SM FG VV002
     FM201400 32004KT 2SM BR OVC005
     FM201600 32004KT 4SM HZ BKN012
     FM201800 30004KT P6SM BKN030
     FM202300 VRB02KT P6SM SCT035
      TEMPO 2104/2106 4SM BR=

USA.gov is the U.S. government's official web portal to all federal, state and local government web resources and services.